Time;durP1;ratioP1;P1;durP2;ratioP2;P2;SDS_P1;SDS_P2;PMS_P1;PMS_P2;Temp;Humidity;BMP_temperature;BMP_pressure;BME280_temperature;BME280_humidity;BME280_pressure;Samples;Min_cycle;Max_cycle;Signal;HPM_P1;HPM_P2
2022/09/19 00:19:49;;;;;;;17.08;3.15;;;11.10;99.90;;;;;;4855217;29;20489;-88
2022/09/19 00:24:45;;;;;;;;;;;;;;;;;;;;;
2022/09/19 00:25:46;;;;;;;17.85;3.30;;;10.90;99.90;;;;;;4848924;29;20074;-89
2022/09/19 00:28:31;;;;;;;;;;;;;;;;;;;;;
2022/09/19 00:34:40;;;;;;;20.30;4.20;;;11.00;99.90;;;;;;4843564;29;20125;-89
2022/09/19 00:41:18;;;;;;;13.43;3.28;;;10.90;99.90;;;;;;4862220;29;20048;-89
2022/09/19 00:47:35;;;;;;;;;;;;;;;;;;;;;
2022/09/19 00:57:13;;;;;;;;;;;;;;;;;;;;;
2022/09/19 01:08:01;;;;;;;;;;;;;;;;;;;;;
2022/09/19 01:14:40;;;;;;;;;;;;;;;;;;;;;
2022/09/19 01:18:08;;;;;;;;;;;;;;;;;;;;;
2022/09/19 01:28:33;;;;;;;21.35;3.45;;;11.00;99.90;;;;;;4852030;29;20010;-91
2022/09/19 01:32:08;;;;;;;;;;;;;;;;;;;;;
2022/09/19 01:35:12;;;;;;;;;;;;;;;;;;;;;
2022/09/19 01:52:29;;;;;;;;;;;;;;;;;;;;;
2022/09/19 01:56:06;;;;;;;;;;;;;;;;;;;;;
2022/09/19 01:58:51;;;;;;;;;;;;;;;;;;;;;
2022/09/19 02:05:31;;;;;;;21.58;4.07;;;11.10;99.90;;;;;;4804064;29;20054;-90
2022/09/19 02:08:56;;;;;;;;;;;;;;;;;;;;;
2022/09/19 02:22:36;;;;;;;;;;;;;;;;;;;;;
2022/09/19 02:25:55;;;;;;;;;;;;;;;;;;;;;
2022/09/19 02:29:30;;;;;;;;;;;;;;;;;;;;;
2022/09/19 02:39:29;;;;;;;19.83;3.20;;;10.90;99.90;;;;;;4854781;29;20064;-89
2022/09/19 02:42:55;;;;;;;20.55;3.13;;;10.80;99.90;;;;;;4860258;29;20481;-89
2022/09/19 02:53:17;;;;;;;;;;;;;;;;;;;;;
2022/09/19 02:55:57;;;;;;;23.83;3.90;;;10.90;99.90;;;;;;4859903;29;20086;-89
2022/09/19 02:59:20;;;;;;;;;;;;;;;;;;;;;
2022/09/19 03:02:16;;;;;;;;;;;;;;;;;;;;;
2022/09/19 03:09:03;;;;;;;15.32;2.53;;;10.90;99.90;;;;;;4850848;29;20128;-88
2022/09/19 03:11:46;;;;;;;;;;;;;;;;;;;;;
2022/09/19 03:14:46;;;;;;;18.27;2.75;;;10.90;99.90;;;;;;4860206;29;20390;-88
2022/09/19 03:17:36;;;;;;;19.98;3.67;;;10.90;99.90;;;;;;4858807;29;20193;-88
2022/09/19 03:20:56;;;;;;;;;;;;;;;;;;;;;
2022/09/19 03:26:57;;;;;;;;;;;;;;;;;;;;;
2022/09/19 03:30:02;;;;;;;;;;;;;;;;;;;;;
2022/09/19 03:33:18;;;;;;;14.15;3.03;;;10.90;99.90;;;;;;4859478;29;20498;-89
2022/09/19 03:36:17;;;;;;;17.10;3.30;;;10.80;99.90;;;;;;4856146;29;20050;-87
2022/09/19 03:39:09;;;;;;;23.33;3.83;;;10.90;99.90;;;;;;4859644;29;20049;-87
2022/09/19 03:41:54;;;;;;;22.00;4.32;;;10.90;99.90;;;;;;4859959;29;20050;-89
2022/09/19 03:45:32;;;;;;;25.00;4.22;;;10.70;99.90;;;;;;4855382;29;20483;-90
2022/09/19 03:48:26;;;;;;;20.30;4.28;;;11.00;99.90;;;;;;4858864;29;20057;-88
2022/09/19 03:51:14;;;;;;;;;;;;;;;;;;;;;
2022/09/19 03:54:01;;;;;;;29.10;3.78;;;11.20;99.90;;;;;;4845254;29;20144;-89
2022/09/19 03:56:50;;;;;;;24.83;4.00;;;11.10;99.90;;;;;;4859127;29;20136;-88
2022/09/19 03:59:15;;;;;;;26.23;4.13;;;11.10;99.90;;;;;;4859982;29;20056;-89
2022/09/19 04:01:41;;;;;;;26.25;4.43;;;11.10;99.90;;;;;;4859198;29;20061;-88
2022/09/19 04:04:44;;;;;;;23.15;3.97;;;10.80;99.90;;;;;;4858819;29;20093;-89
2022/09/19 04:07:56;;;;;;;22.40;4.50;;;11.10;99.90;;;;;;4859233;29;20052;-88
2022/09/19 04:10:53;;;;;;;27.50;4.30;;;11.10;99.90;;;;;;4859309;29;20049;-88
2022/09/19 04:13:28;;;;;;;32.78;5.00;;;11.00;99.90;;;;;;4846377;29;20061;-89
2022/09/19 04:19:16;;;;;;;28.25;4.88;;;11.00;99.90;;;;;;4863134;29;20057;-88
2022/09/19 04:22:18;;;;;;;29.20;4.68;;;11.00;99.90;;;;;;4848354;29;20049;-89
2022/09/19 04:25:15;;;;;;;25.38;4.32;;;10.90;99.90;;;;;;4861798;29;20403;-89
2022/09/19 04:31:12;;;;;;;24.48;4.85;;;11.10;99.90;;;;;;4839937;29;20060;-89
2022/09/19 04:34:17;;;;;;;22.02;3.90;;;11.20;99.90;;;;;;4871983;29;20485;-88
2022/09/19 04:40:41;;;;;;;;;;;;;;;;;;;;;
2022/09/19 04:44:09;;;;;;;;;;;;;;;;;;;;;
2022/09/19 04:52:55;;;;;;;;;;;;;;;;;;;;;
2022/09/19 05:05:34;;;;;;;;;;;;;;;;;;;;;
2022/09/19 05:08:54;;;;;;;;;;;;;;;;;;;;;
2022/09/19 05:11:52;;;;;;;;;;;;;;;;;;;;;
2022/09/19 05:21:19;;;;;;;;;;;;;;;;;;;;;
2022/09/19 05:27:40;;;;;;;30.15;3.95;;;11.00;99.90;;;;;;4855375;29;20057;-90
2022/09/19 05:34:34;;;;;;;;;;;;;;;;;;;;;
2022/09/19 05:44:43;;;;;;;29.10;3.90;;;11.20;99.90;;;;;;4856732;29;20057;-89
2022/09/19 05:47:39;;;;;;;20.70;3.60;;;11.20;99.90;;;;;;4828516;29;20188;-88
2022/09/19 05:54:18;;;;;;;21.30;3.53;;;11.20;99.90;;;;;;4805234;29;20054;-88
2022/09/19 05:57:02;;;;;;;28.05;4.03;;;11.20;99.90;;;;;;4806702;29;20065;-89
2022/09/19 06:03:41;;;;;;;;;;;;;;;;;;;;;
2022/09/19 06:13:18;;;;;;;;;;;;;;;;;;;;;
2022/09/19 06:15:57;;;;;;;;;;;;;;;;;;;;;
2022/09/19 06:18:49;;;;;;;;;;;;;;;;;;;;;
2022/09/19 06:22:09;;;;;;;;;;;;;;;;;;;;;
2022/09/19 06:28:10;;;;;;;23.15;4.50;;;11.70;99.90;;;;;;4822808;29;20058;-88
2022/09/19 06:34:22;;;;;;;;;;;;;;;;;;;;;
2022/09/19 06:43:27;;;;;;;;;;;;;;;;;;;;;
2022/09/19 06:46:37;;;;;;;;;;;;;;;;;;;;;
2022/09/19 06:49:13;;;;;;;15.82;3.15;;;11.70;99.90;;;;;;4809293;29;20139;-89
2022/09/19 06:52:08;;;;;;;;;;;;;;;;;;;;;
2022/09/19 06:55:08;;;;;;;15.30;3.40;;;11.70;99.90;;;;;;4859432;29;20138;-88
2022/09/19 06:58:28;;;;;;;;;;;;;;;;;;;;;
2022/09/19 07:02:07;;;;;;;17.55;3.70;;;11.80;99.90;;;;;;4857910;29;20062;-88
2022/09/19 07:04:46;;;;;;;18.77;3.17;;;11.90;99.90;;;;;;4855656;29;20054;-88
2022/09/19 07:07:31;;;;;;;;;;;;;;;;;;;;;
2022/09/19 07:09:59;;;;;;;16.98;3.40;;;11.90;99.90;;;;;;4859570;29;20053;-88
2022/09/19 07:12:56;;;;;;;15.35;2.85;;;11.90;99.90;;;;;;4859398;29;20045;-89
2022/09/19 07:15:32;;;;;;;12.18;2.90;;;11.90;99.90;;;;;;4858943;29;20057;-87
2022/09/19 07:21:29;;;;;;;14.48;2.65;;;12.00;99.90;;;;;;4858670;29;20058;-88
2022/09/19 07:24:08;;;;;;;;;;;;;;;;;;;;;
2022/09/19 07:27:06;;;;;;;18.80;3.80;;;12.00;99.90;;;;;;4858904;29;20053;-88
2022/09/19 07:29:42;;;;;;;19.65;3.85;;;12.00;99.90;;;;;;4872511;29;20482;-88
2022/09/19 07:32:53;;;;;;;24.45;4.35;;;12.10;99.90;;;;;;4857946;29;20085;-88
2022/09/19 07:35:29;;;;;;;;;;;;;;;;;;;;;
2022/09/19 07:38:00;;;;;;;22.10;4.80;;;12.40;99.90;;;;;;4859265;29;20056;-87
2022/09/19 07:40:33;;;;;;;29.70;4.68;;;12.50;99.90;;;;;;4858621;29;20486;-87
2022/09/19 07:43:30;;;;;;;24.30;4.80;;;12.70;99.90;;;;;;4858849;29;20110;-88
2022/09/19 07:45:59;;;;;;;24.20;5.03;;;12.90;99.90;;;;;;4858255;29;20057;-89
2022/09/19 07:48:32;;;;;;;20.20;4.03;;;13.10;99.90;;;;;;4858404;29;20065;-88
2022/09/19 07:51:14;;;;;;;;;;;;;;;;;;;;;
2022/09/19 07:53:46;;;;;;;15.82;3.95;;;13.20;99.90;;;;;;4861307;29;20061;-89
2022/09/19 07:56:29;;;;;;;16.60;3.25;;;13.10;99.90;;;;;;4862358;29;20117;-91
2022/09/19 07:59:14;;;;;;;;;;;;;;;;;;;;;
2022/09/19 08:02:03;;;;;;;;;;;;;;;;;;;;;
2022/09/19 08:11:17;;;;;;;16.25;2.72;;;12.10;99.90;;;;;;4846159;29;20049;-87
2022/09/19 08:13:54;;;;;;;13.93;3.25;;;12.10;99.90;;;;;;4831394;29;20061;-88
2022/09/19 08:16:27;;;;;;;16.88;3.80;;;12.20;99.90;;;;;;4862081;29;20045;-90
2022/09/19 08:19:04;;;;;;;19.02;3.95;;;12.10;99.90;;;;;;4861691;29;20057;-88
2022/09/19 08:21:48;;;;;;;23.48;4.18;;;12.10;99.90;;;;;;4847060;29;20089;-88
2022/09/19 08:24:19;;;;;;;22.33;4.30;;;12.20;99.90;;;;;;4847293;29;20057;-88
2022/09/19 08:27:43;;;;;;;23.30;3.85;;;12.30;99.90;;;;;;4846458;29;20137;-88
2022/09/19 08:30:31;;;;;;;20.67;5.00;;;12.50;99.90;;;;;;4862030;29;20085;-89
2022/09/19 08:35:51;;;;;;;22.15;4.35;;;12.90;99.90;;;;;;4841622;29;20053;-89
2022/09/19 08:38:30;;;;;;;23.40;5.18;;;13.10;99.90;;;;;;4861511;29;20053;-88
2022/09/19 08:41:17;;;;;;;24.05;4.55;;;13.00;99.90;;;;;;4846277;29;20483;-88
2022/09/19 08:44:09;;;;;;;21.08;4.60;;;13.30;99.90;;;;;;4862023;29;20054;-89
2022/09/19 08:47:29;;;;;;;18.10;3.88;;;13.30;99.90;;;;;;4861807;29;20156;-88
2022/09/19 08:50:03;;;;;;;21.95;3.75;;;13.40;99.90;;;;;;4860474;29;20471;-88
2022/09/19 08:53:00;;;;;;;23.15;4.47;;;13.50;99.90;;;;;;4860592;29;20502;-88
2022/09/19 08:56:03;;;;;;;;;;;;;;;;;;;;;
2022/09/19 08:58:46;;;;;;;14.77;3.17;;;13.60;99.90;;;;;;4849148;29;20152;-88
2022/09/19 09:01:39;;;;;;;;;;;;;;;;;;;;;
2022/09/19 09:04:28;;;;;;;;;;;;;;;;;;;;;
2022/09/19 09:07:12;;;;;;;15.13;3.33;;;13.90;99.90;;;;;;4861679;29;20359;-88
2022/09/19 09:09:56;;;;;;;;;;;13.90;99.90;;;;;;4861540;29;20129;-87
2022/09/19 09:12:31;;;;;;;14.90;2.95;;;14.00;99.90;;;;;;4860889;29;19924;-87
2022/09/19 09:15:13;;;;;;;14.30;3.60;;;14.20;99.90;;;;;;4860881;29;20065;-88
2022/09/19 09:18:21;;;;;;;14.45;3.05;;;14.20;99.90;;;;;;4861411;29;20054;-89
2022/09/19 09:21:05;;;;;;;18.80;3.95;;;14.30;99.90;;;;;;4861221;29;20482;-88
2022/09/19 09:23:42;;;;;;;20.83;3.83;;;14.50;99.90;;;;;;4860875;29;20057;-88
2022/09/19 09:26:27;;;;;;;15.20;3.30;;;14.80;99.90;;;;;;4860638;29;20064;-88
2022/09/19 09:29:41;;;;;;;16.90;3.47;;;14.80;99.90;;;;;;4861605;29;20118;-88
2022/09/19 09:32:26;;;;;;;17.90;4.40;;;14.70;99.90;;;;;;4841326;29;20061;-87
2022/09/19 09:35:04;;;;;;;;;;;;;;;;;;;;;
2022/09/19 09:37:51;;;;;;;19.63;3.67;;;14.60;99.90;;;;;;4860952;29;20118;-86
2022/09/19 09:43:20;;;;;;;17.25;4.38;;;15.00;99.90;;;;;;4860244;29;20061;-88
2022/09/19 09:45:59;;;;;;;18.30;3.58;;;15.20;99.90;;;;;;4860388;29;20065;-89
2022/09/19 09:48:35;;;;;;;14.35;2.88;;;15.30;99.90;;;;;;4860469;29;20050;-87
2022/09/19 09:51:20;;;;;;;11.15;2.22;;;15.20;99.90;;;;;;4844914;29;20042;-88
2022/09/19 09:54:02;;;;;;;10.68;2.50;;;14.80;99.90;;;;;;4859844;29;20107;-88
2022/09/19 09:56:53;;;;;;;;;;;;;;;;;;;;;
2022/09/19 10:05:42;;;;;;;19.45;3.50;;;12.60;99.90;;;;;;4860103;29;20399;-87
2022/09/19 10:08:19;;;;;;;18.15;3.67;;;12.30;99.90;;;;;;4845080;29;20121;-87
2022/09/19 10:10:53;;;;;;;16.38;3.05;;;12.20;99.90;;;;;;4860008;29;20056;-87
2022/09/19 10:13:35;;;;;;;;;;;12.20;99.90;;;;;;4860010;29;20530;-87
2022/09/19 10:16:05;;;;;;;24.27;4.38;;;12.10;99.90;;;;;;4861051;29;19924;-87
2022/09/19 10:19:13;;;;;;;17.17;4.25;;;12.10;99.90;;;;;;4875841;29;20109;-88
2022/09/19 10:21:49;;;;;;;22.40;3.85;;;12.40;99.90;;;;;;4875347;29;20377;-87
2022/09/19 10:25:02;;;;;;;16.13;3.55;;;12.20;99.90;;;;;;4861764;29;20053;-88
2022/09/19 10:27:31;;;;;;;18.40;3.58;;;12.30;99.90;;;;;;4860729;29;20049;-87
2022/09/19 10:29:59;;;;;;;21.40;3.85;;;12.40;99.90;;;;;;4859944;29;20113;-89
2022/09/19 10:33:08;;;;;;;;;;;;;;;;;;;;;
2022/09/19 10:36:18;;;;;;;19.95;4.78;;;12.60;99.90;;;;;;4859980;29;20054;-87
2022/09/19 10:39:09;;;;;;;23.30;3.70;;;12.70;99.90;;;;;;4845307;29;20061;-88
2022/09/19 10:41:52;;;;;;;15.85;4.05;;;12.90;99.90;;;;;;4859347;29;20048;-87
2022/09/19 10:44:38;;;;;;;23.58;4.25;;;13.10;99.90;;;;;;4830318;29;20060;-88
2022/09/19 10:47:25;;;;;;;17.98;3.92;;;13.40;99.90;;;;;;4859212;29;20447;-89
2022/09/19 10:50:05;;;;;;;18.88;4.22;;;13.50;99.90;;;;;;4858798;29;20057;-88
2022/09/19 10:53:17;;;;;;;21.83;3.97;;;13.70;99.90;;;;;;4829445;29;20096;-87
2022/09/19 10:56:26;;;;;;;19.50;3.20;;;13.90;99.90;;;;;;4859295;29;20057;-88
2022/09/19 10:59:36;;;;;;;13.93;3.65;;;14.00;99.90;;;;;;4833752;29;20057;-88
2022/09/19 11:02:28;;;;;;;14.63;3.13;;;14.10;99.90;;;;;;4858894;29;20053;-87
2022/09/19 11:05:12;;;;;;;11.77;2.97;;;14.20;99.90;;;;;;4859609;29;20130;-87
2022/09/19 11:08:32;;;;;;;;;;;;;;;;;;;;;
2022/09/19 11:11:37;;;;;;;15.00;3.28;;;14.30;99.90;;;;;;4854817;29;20174;-88
2022/09/19 11:14:32;;;;;;;19.02;3.72;;;14.40;99.90;;;;;;4859396;29;20096;-88
2022/09/19 11:17:37;;;;;;;18.42;3.85;;;14.60;99.90;;;;;;4836314;29;20061;-87
2022/09/19 11:20:29;;;;;;;21.20;4.13;;;14.60;99.90;;;;;;4858255;29;20065;-88
2022/09/19 11:23:37;;;;;;;16.55;4.15;;;14.70;99.90;;;;;;4858868;29;20092;-88
2022/09/19 11:26:40;;;;;;;24.52;4.25;;;14.80;99.90;;;;;;4861041;29;20112;-88
2022/09/19 11:29:18;;;;;;;;;;;14.90;99.90;;;;;;4863117;29;20049;-87
2022/09/19 11:32:45;;;;;;;15.70;3.22;;;15.00;99.90;;;;;;4862242;29;19931;-88
2022/09/19 11:36:07;;;;;;;20.10;3.25;;;15.10;99.90;;;;;;4816666;29;20060;-89
2022/09/19 11:39:03;;;;;;;17.27;3.70;;;15.00;99.90;;;;;;4862360;29;20057;-90
2022/09/19 11:42:17;;;;;;;16.80;3.72;;;14.70;99.90;;;;;;4862190;29;20136;-88
2022/09/19 11:45:17;;;;;;;14.35;3.47;;;14.90;99.90;;;;;;4862229;29;20056;-89
2022/09/19 11:48:00;;;;;;;15.57;3.97;;;14.90;99.90;;;;;;4862342;29;20057;-91
2022/09/19 11:51:06;;;;;;;10.95;2.80;;;15.20;99.90;;;;;;4862910;29;20057;-89
2022/09/19 11:54:24;;;;;;;;;;;;;;;;;;;;;
2022/09/19 11:57:37;;;;;;;;;;;;;;;;;;;;;
2022/09/19 12:04:02;;;;;;;;;;;;;;;;;;;;;
2022/09/19 12:10:50;;;;;;;13.73;3.13;;;15.70;99.90;;;;;;4858478;29;20085;-90
2022/09/19 12:13:59;;;;;;;;;;;;;;;;;;;;;
2022/09/19 12:17:25;;;;;;;16.27;3.72;;;15.60;99.90;;;;;;4861852;29;20565;-89
2022/09/19 12:20:29;;;;;;;;;;;;;;;;;;;;;
2022/09/19 12:30:11;;;;;;;16.17;3.78;;;16.20;99.90;;;;;;4832843;29;20192;-88
2022/09/19 12:33:02;;;;;;;15.30;3.55;;;16.10;99.90;;;;;;4861506;29;20516;-88
2022/09/19 12:36:01;;;;;;;16.67;3.92;;;16.00;99.90;;;;;;4861272;29;20144;-88
2022/09/19 12:38:56;;;;;;;15.55;3.83;;;15.90;99.90;;;;;;4829558;29;20053;-89
2022/09/19 12:41:54;;;;;;;16.30;3.30;;;15.90;99.90;;;;;;4812896;29;20061;-89
2022/09/19 12:48:42;;;;;;;14.73;3.30;;;16.00;99.90;;;;;;4854997;29;20313;-91
2022/09/19 12:51:30;;;;;;;19.27;3.97;;;16.30;99.90;;;;;;4860829;29;20046;-90
2022/09/19 12:54:44;;;;;;;13.18;3.28;;;16.40;99.90;;;;;;4860053;29;20053;-87
2022/09/19 12:57:44;;;;;;;12.52;2.88;;;16.20;99.90;;;;;;4851417;29;20508;-88
2022/09/19 13:00:45;;;;;;;12.93;3.00;;;16.00;99.90;;;;;;4845598;29;20137;-88
2022/09/19 13:06:32;;;;;;;;;;;;;;;;;;;;;
2022/09/19 13:09:17;;;;;;;17.88;3.53;;;15.90;99.90;;;;;;4846489;29;19924;-86
2022/09/19 13:12:37;;;;;;;19.45;3.65;;;16.00;99.90;;;;;;4861179;29;20383;-89
2022/09/19 13:16:00;;;;;;;14.52;3.45;;;16.10;99.90;;;;;;4841171;29;20193;-90
2022/09/19 13:24:47;;;;;;;14.60;2.78;;;16.20;99.90;;;;;;4861257;29;20053;-88
2022/09/19 13:30:49;;;;;;;15.68;3.83;;;15.80;99.90;;;;;;4842492;29;20124;-89
2022/09/19 13:33:51;;;;;;;12.13;3.40;;;15.70;99.90;;;;;;4826149;29;20148;-89
2022/09/19 13:37:14;;;;;;;12.77;2.72;;;15.50;99.90;;;;;;4862515;29;20093;-88
2022/09/19 13:40:25;;;;;;;14.85;2.50;;;15.20;99.90;;;;;;4859875;29;20069;-90
2022/09/19 13:43:14;;;;;;;14.70;3.10;;;15.00;99.90;;;;;;4859076;29;20079;-88
2022/09/19 13:46:15;;;;;;;;;;;;;;;;;;;;;
2022/09/19 13:48:56;;;;;;;10.85;2.22;;;14.80;99.90;;;;;;4860400;29;20053;-89
2022/09/19 13:51:51;;;;;;;;;;;;;;;;;;;;;
2022/09/19 13:59:03;;;;;;;13.82;2.65;;;15.60;99.90;;;;;;4857222;29;20067;-89
2022/09/19 14:01:57;;;;;;;15.52;3.30;;;15.70;99.90;;;;;;4789310;29;20062;-88
2022/09/19 14:07:46;;;;;;;14.13;3.40;;;15.10;99.90;;;;;;4860751;29;20049;-89
2022/09/19 14:10:24;;;;;;;16.90;3.47;;;15.00;99.90;;;;;;4860530;29;20136;-88
2022/09/19 14:13:16;;;;;;;14.27;3.50;;;14.80;99.90;;;;;;4860099;29;20053;-88
2022/09/19 14:16:03;;;;;;;16.73;3.50;;;14.60;99.90;;;;;;4858696;29;20052;-88
2022/09/19 14:19:04;;;;;;;13.35;4.00;;;14.50;99.90;;;;;;4859152;29;20474;-87
2022/09/19 14:21:35;;;;;;;22.35;4.50;;;14.50;99.90;;;;;;4859809;29;20049;-87
2022/09/19 14:24:23;;;;;;;15.38;3.67;;;14.50;99.90;;;;;;4859943;29;20098;-86
2022/09/19 14:27:28;;;;;;;19.23;4.43;;;14.80;99.90;;;;;;4860036;29;20061;-89
2022/09/19 14:30:44;;;;;;;15.07;3.00;;;15.00;99.90;;;;;;4862290;29;20128;-87
2022/09/19 14:33:49;;;;;;;14.82;3.10;;;15.50;99.90;;;;;;4856683;29;20066;-88
2022/09/19 14:36:46;;;;;;;12.32;2.60;;;15.50;99.90;;;;;;4859819;29;20061;-89
2022/09/19 14:39:46;;;;;;;13.10;2.88;;;15.80;99.90;;;;;;4864068;29;20064;-90
2022/09/19 14:42:33;;;;;;;14.07;2.80;;;15.90;99.90;;;;;;4863412;29;20053;-89
2022/09/19 14:45:37;;;;;;;11.07;2.72;;;16.00;99.90;;;;;;4860056;29;20393;-88
2022/09/19 14:48:35;;;;;;;18.20;2.67;;;16.00;99.90;;;;;;4831626;29;20076;-88
2022/09/19 14:51:30;;;;;;;11.75;2.83;;;15.90;98.10;;;;;;4834203;29;20379;-88
2022/09/19 14:54:40;;;;;;;15.02;3.25;;;15.70;97.50;;;;;;4859755;29;20089;-90
2022/09/19 14:57:32;;;;;;;16.52;2.97;;;15.50;98.30;;;;;;4858715;29;20523;-90
2022/09/19 15:00:38;;;;;;;19.48;3.10;;;15.60;98.70;;;;;;4850860;29;20061;-90
2022/09/19 15:03:24;;;;;;;7.30;2.00;;;15.80;96.60;;;;;;4859983;29;20045;-90
2022/09/19 15:06:12;;;;;;;12.25;2.25;;;15.80;95.50;;;;;;4859153;29;20085;-88
2022/09/19 15:08:56;;;;;;;11.88;2.40;;;15.70;95.30;;;;;;4874466;29;20056;-89
2022/09/19 15:11:22;;;;;;;16.25;2.90;;;15.40;94.10;;;;;;4859753;29;20435;-88
2022/09/19 15:17:43;;;;;;;;;;;;;;;;;;;;;
2022/09/19 15:20:55;;;;;;;13.00;2.80;;;15.20;96.90;;;;;;4845167;29;20316;-89
2022/09/19 15:23:34;;;;;;;11.82;2.45;;;15.30;96.10;;;;;;4859341;29;20132;-91
2022/09/19 15:26:25;;;;;;;14.20;2.90;;;15.30;97.60;;;;;;4859973;29;20045;-89
2022/09/19 15:29:18;;;;;;;;;;;;;;;;;;;;;
2022/09/19 15:31:45;;;;;;;10.52;2.55;;;15.40;96.50;;;;;;4859539;29;20045;-89
2022/09/19 15:34:20;;;;;;;13.90;2.55;;;15.50;95.80;;;;;;4843895;29;20497;-89
2022/09/19 15:36:46;;;;;;;13.45;2.42;;;15.50;95.80;;;;;;4845027;29;20081;-89
2022/09/19 15:39:21;;;;;;;12.70;2.67;;;15.60;95.10;;;;;;4859451;29;20053;-89
2022/09/19 15:41:59;;;;;;;10.38;2.40;;;15.60;95.60;;;;;;4844854;29;20061;-88
2022/09/19 15:44:37;;;;;;;;;;;;;;;;;;;;;
2022/09/19 15:47:22;;;;;;;13.63;2.53;;;15.40;95.90;;;;;;4860447;29;20050;-90
2022/09/19 15:50:24;;;;;;;12.57;2.53;;;15.40;94.70;;;;;;4859503;29;20110;-89
2022/09/19 15:53:00;;;;;;;10.23;2.28;;;15.30;95.70;;;;;;4841601;29;20059;-89
2022/09/19 15:56:01;;;;;;;;;;;;;;;;;;;;;
2022/09/19 15:58:44;;;;;;;12.90;2.55;;;15.20;94.00;;;;;;4848643;29;20069;-87
2022/09/19 16:01:27;;;;;;;10.05;2.08;;;15.10;94.60;;;;;;4861170;29;20049;-89
2022/09/19 16:04:51;;;;;;;;;;;;;;;;;;;;;
2022/09/19 16:10:49;;;;;;;;;;;;;;;;;;;;;
2022/09/19 16:13:48;;;;;;;15.48;2.42;;;15.10;95.70;;;;;;4862655;29;20053;-88
2022/09/19 16:16:50;;;;;;;7.40;2.00;;;15.10;96.00;;;;;;4863077;29;20058;-88
2022/09/19 16:19:27;;;;;;;12.13;2.35;;;15.10;95.80;;;;;;4832361;29;20066;-87
2022/09/19 16:21:54;;;;;;;13.63;2.33;;;15.10;95.10;;;;;;4863144;29;20046;-88
2022/09/19 16:24:27;;;;;;;12.55;2.05;;;15.10;95.80;;;;;;4863299;29;20057;-89
2022/09/19 16:27:18;;;;;;;10.77;2.65;;;15.00;95.80;;;;;;4862425;29;20462;-89
2022/09/19 16:30:09;;;;;;;9.45;2.20;;;15.00;96.00;;;;;;4862351;29;20053;-88
2022/09/19 16:32:45;;;;;;;20.50;4.45;;;14.90;96.20;;;;;;4853931;29;20517;-88
2022/09/19 16:35:23;;;;;;;14.30;2.33;;;15.00;96.40;;;;;;4863377;29;20054;-88
2022/09/19 16:37:52;;;;;;;10.23;2.15;;;14.80;96.60;;;;;;4863070;29;20136;-88
2022/09/19 16:44:06;;;;;;;12.10;2.70;;;14.70;97.00;;;;;;4844225;29;20053;-89
2022/09/19 16:46:41;;;;;;;9.52;1.80;;;14.70;97.70;;;;;;4863052;29;20510;-89
2022/09/19 16:49:09;;;;;;;12.23;2.63;;;14.60;97.40;;;;;;4846723;29;20410;-90
2022/09/19 16:52:01;;;;;;;11.90;2.50;;;14.70;97.80;;;;;;4862603;29;20049;-89
2022/09/19 16:55:00;;;;;;;;;;;;;;;;;;;;;
2022/09/19 16:57:32;;;;;;;10.63;1.83;;;14.70;98.30;;;;;;4861275;29;20061;-89
2022/09/19 17:00:18;;;;;;;11.02;2.67;;;14.80;98.50;;;;;;4847589;29;20144;-88
2022/09/19 17:02:55;;;;;;;12.30;2.25;;;14.80;98.00;;;;;;4862188;29;20068;-88
2022/09/19 17:05:36;;;;;;;7.38;1.90;;;14.70;98.20;;;;;;4862371;29;20046;-88
2022/09/19 17:08:06;;;;;;;7.00;2.05;;;14.70;98.40;;;;;;4848568;29;20053;-89
2022/09/19 17:10:35;;;;;;;9.88;2.38;;;14.70;98.50;;;;;;4846536;29;20123;-88
2022/09/19 17:13:13;;;;;;;;;;;;;;;;;;;;;
2022/09/19 17:16:25;;;;;;;;;;;;;;;;;;;;;
2022/09/19 17:19:42;;;;;;;14.43;2.15;;;14.40;99.10;;;;;;4863060;29;20045;-91
2022/09/19 17:26:24;;;;;;;;;;;;;;;;;;;;;
2022/09/19 17:39:55;;;;;;;12.13;2.63;;;13.30;99.90;;;;;;4763586;29;20108;-93
2022/09/19 17:45:25;;;;;;;11.40;2.17;;;12.80;99.90;;;;;;4842197;29;20048;-94
2022/09/19 17:47:51;;;;;;;8.77;2.33;;;12.50;99.90;;;;;;4810844;29;20054;-95
2022/09/19 17:50:17;;;;;;;9.27;2.47;;;12.30;99.90;;;;;;4817473;29;20052;-94
2022/09/19 17:52:43;;;;;;;10.77;1.90;;;12.20;99.90;;;;;;4807177;29;20046;-95
2022/09/19 17:55:09;;;;;;;5.78;1.67;;;12.00;99.90;;;;;;4806186;29;20207;-95
2022/09/19 17:57:35;;;;;;;9.50;1.98;;;11.90;99.90;;;;;;4808456;29;20097;-93
2022/09/19 18:00:02;;;;;;;12.63;2.10;;;11.70;99.90;;;;;;4817278;29;20049;-94
2022/09/19 18:05:15;;;;;;;8.88;1.85;;;11.30;99.90;;;;;;4819534;29;20050;-94
2022/09/19 18:07:41;;;;;;;9.68;2.00;;;11.20;99.90;;;;;;4806424;29;20123;-93
2022/09/19 18:10:08;;;;;;;7.18;1.98;;;11.10;99.90;;;;;;4777604;29;20096;-95
2022/09/19 18:12:35;;;;;;;11.07;2.15;;;11.00;99.90;;;;;;4808879;29;20133;-93
2022/09/19 18:15:01;;;;;;;9.60;1.88;;;11.00;99.90;;;;;;4778232;29;20053;-95
2022/09/19 18:17:29;;;;;;;8.35;1.63;;;10.80;99.90;;;;;;4789156;29;20074;-93
2022/09/19 18:19:55;;;;;;;12.82;2.33;;;10.70;99.90;;;;;;4804036;29;20412;-93
2022/09/19 18:22:21;;;;;;;10.80;2.15;;;10.60;99.90;;;;;;4800491;29;20043;-95
2022/09/19 18:24:47;;;;;;;14.25;2.50;;;10.50;99.90;;;;;;4807671;29;20068;-94
2022/09/19 18:27:15;;;;;;;10.98;2.30;;;10.40;99.90;;;;;;4819646;29;20038;-93
2022/09/19 18:29:41;;;;;;;11.93;2.75;;;10.40;99.90;;;;;;4803107;29;20074;-94
2022/09/19 18:32:09;;;;;;;11.10;2.42;;;10.30;99.90;;;;;;4806217;29;20057;-94
2022/09/19 18:34:35;;;;;;;13.10;2.45;;;10.30;99.90;;;;;;4787430;29;20034;-95
2022/09/19 18:37:00;;;;;;;7.43;2.03;;;10.30;99.90;;;;;;4807305;29;20120;-93
2022/09/19 18:39:26;;;;;;;11.50;2.40;;;10.20;99.90;;;;;;4804407;29;20503;-94
2022/09/19 18:41:52;;;;;;;9.00;2.40;;;10.20;99.90;;;;;;4820184;29;20038;-94
2022/09/19 18:44:18;;;;;;;9.98;2.17;;;10.10;99.90;;;;;;4789836;29;20062;-94
2022/09/19 18:46:45;;;;;;;12.55;2.95;;;10.00;99.90;;;;;;4786123;29;20106;-94
2022/09/19 18:49:10;;;;;;;13.88;2.50;;;10.00;99.90;;;;;;4777299;29;20047;-95
2022/09/19 18:51:36;;;;;;;15.38;2.42;;;10.00;99.90;;;;;;4828247;29;20046;-93
2022/09/19 18:54:02;;;;;;;12.73;2.30;;;9.90;99.90;;;;;;4802120;29;20050;-92
2022/09/19 18:56:29;;;;;;;10.07;2.53;;;9.80;99.90;;;;;;4803127;29;20129;-94
2022/09/19 18:58:56;;;;;;;17.95;2.97;;;9.80;99.90;;;;;;4801571;29;20053;-92
2022/09/19 19:01:24;;;;;;;11.00;2.33;;;9.70;99.90;;;;;;4802799;29;20047;-94
2022/09/19 19:03:59;;;;;;;13.85;2.38;;;9.60;99.90;;;;;;4802653;29;20057;-95
2022/09/19 19:06:27;;;;;;;14.30;2.55;;;9.50;99.90;;;;;;4802200;29;20086;-93
2022/09/19 19:08:54;;;;;;;9.93;2.90;;;9.40;99.90;;;;;;4793400;29;20057;-94
2022/09/19 19:11:22;;;;;;;10.27;2.22;;;9.40;99.90;;;;;;4805029;29;20051;-93
2022/09/19 19:13:48;;;;;;;11.65;2.95;;;9.40;99.90;;;;;;4825592;29;20121;-93
2022/09/19 19:16:17;;;;;;;12.50;3.13;;;9.30;99.90;;;;;;4800365;29;20115;-93
2022/09/19 19:18:49;;;;;;;12.57;2.72;;;9.30;99.90;;;;;;4821156;29;20082;-93
2022/09/19 19:21:18;;;;;;;16.58;3.33;;;9.40;99.90;;;;;;4792387;29;20045;-93
2022/09/19 19:23:45;;;;;;;11.02;2.47;;;9.40;99.90;;;;;;4804436;29;20058;-93
2022/09/19 19:26:10;;;;;;;11.65;3.10;;;9.40;99.90;;;;;;4822201;29;20046;-93
2022/09/19 19:28:36;;;;;;;9.45;2.45;;;9.40;99.90;;;;;;4802071;29;20055;-94
2022/09/19 19:31:04;;;;;;;12.80;2.95;;;9.30;99.90;;;;;;4817154;29;20046;-93
2022/09/19 19:33:30;;;;;;;11.77;2.30;;;9.30;99.90;;;;;;4820655;29;20038;-94
2022/09/19 19:36:14;;;;;;;12.65;2.40;;;9.20;99.90;;;;;;4802292;29;20051;-93
2022/09/19 19:38:42;;;;;;;13.70;2.45;;;9.20;99.90;;;;;;4830401;29;20089;-94
2022/09/19 19:41:28;;;;;;;16.15;3.08;;;9.10;99.90;;;;;;4818010;29;20114;-94
2022/09/19 19:43:56;;;;;;;12.40;2.80;;;9.20;99.90;;;;;;4798190;29;20069;-94
2022/09/19 19:46:24;;;;;;;12.85;2.97;;;9.10;99.90;;;;;;4816592;29;20392;-93
2022/09/19 19:48:52;;;;;;;10.65;3.00;;;9.10;99.90;;;;;;4802919;29;20061;-92
2022/09/19 19:51:20;;;;;;;12.75;2.65;;;9.20;99.90;;;;;;4801471;29;20057;-94
2022/09/19 19:53:47;;;;;;;9.50;2.58;;;9.10;99.90;;;;;;4800389;29;20051;-93
2022/09/19 19:56:16;;;;;;;8.93;2.25;;;9.20;99.90;;;;;;4813380;29;20043;-94
2022/09/19 19:58:42;;;;;;;13.88;2.30;;;9.10;99.90;;;;;;4808484;29;20043;-94
2022/09/19 20:01:17;;;;;;;17.02;3.65;;;9.20;99.90;;;;;;4802956;29;20058;-94
2022/09/19 20:04:02;;;;;;;13.27;3.08;;;9.20;99.90;;;;;;4802390;29;20050;-93
2022/09/19 20:06:36;;;;;;;11.95;2.70;;;9.20;99.90;;;;;;4803492;29;20113;-94
2022/09/19 20:09:03;;;;;;;13.23;2.63;;;9.20;99.90;;;;;;4820070;29;20047;-92
2022/09/19 20:11:30;;;;;;;10.40;3.08;;;9.20;99.90;;;;;;4813333;29;20059;-93
2022/09/19 20:13:58;;;;;;;13.75;3.35;;;9.30;99.90;;;;;;4801895;29;20104;-93
2022/09/19 20:16:27;;;;;;;18.05;3.60;;;9.30;99.90;;;;;;4792797;29;20096;-93
2022/09/19 20:18:58;;;;;;;14.40;2.55;;;9.30;99.90;;;;;;4805339;29;20102;-92
2022/09/19 20:21:26;;;;;;;13.25;2.75;;;9.30;99.90;;;;;;4798625;29;20504;-92
2022/09/19 20:23:54;;;;;;;12.82;2.67;;;9.40;99.90;;;;;;4831994;29;20081;-93
2022/09/19 20:26:24;;;;;;;10.75;2.45;;;9.50;99.90;;;;;;4833636;29;20053;-93
2022/09/19 20:28:52;;;;;;;12.57;2.72;;;9.50;99.90;;;;;;4818466;29;20081;-92
2022/09/19 20:31:20;;;;;;;11.43;2.60;;;9.50;99.90;;;;;;4816585;29;20496;-93